Time;durP1;ratioP1;P1;durP2;ratioP2;P2;SDS_P1;SDS_P2;PMS_P1;PMS_P2;Temp;Humidity;BMP_temperature;BMP_pressure;BME280_temperature;BME280_humidity;BME280_pressure;Samples;Min_cycle;Max_cycle;Signal;HPM_P1;HPM_P2
2023/12/26 00:00:02;;;;;;;4.80;3.10;;;;;;;7.22;87.80;98823.14;219485;1254;140242;-73
2023/12/26 00:05:09;;;;;;;3.30;2.60;;;;;;;7.22;87.68;98828.64;218922;1254;139517;-69
2023/12/26 00:10:15;;;;;;;4.90;2.50;;;;;;;7.19;87.64;98832.20;219729;1253;139858;-69
2023/12/26 00:15:20;;;;;;;4.00;2.40;;;;;;;7.12;87.73;98816.03;218831;1253;139530;-69
2023/12/26 00:20:24;;;;;;;4.60;3.00;;;;;;;7.08;87.98;98818.17;217830;1254;139793;-70
2023/12/26 00:25:28;;;;;;;4.20;3.00;;;;;;;7.04;88.07;98808.35;218869;1254;140822;-69
2023/12/26 00:30:33;;;;;;;4.10;2.90;;;;;;;7.05;88.38;98805.14;217737;1256;139524;-69
2023/12/26 00:35:37;;;;;;;5.50;3.00;;;;;;;7.07;88.75;98813.18;217693;1253;139721;-69
2023/12/26 00:40:42;;;;;;;6.90;2.50;;;;;;;7.08;88.73;98808.95;217678;1254;139601;-69
2023/12/26 00:45:47;;;;;;;4.70;2.20;;;;;;;7.07;88.92;98811.65;217841;1254;139308;-70
2023/12/26 00:50:52;;;;;;;5.30;3.00;;;;;;;7.10;89.09;98815.94;218567;1253;142188;-69
2023/12/26 00:55:57;;;;;;;4.80;2.60;;;;;;;7.09;89.04;98812.11;218727;1253;141096;-69
2023/12/26 01:01:02;;;;;;;2.40;2.20;;;;;;;7.09;89.23;98810.89;217806;1254;139846;-70
2023/12/26 01:06:07;;;;;;;3.30;1.90;;;;;;;7.10;89.56;98805.24;218474;1253;140331;-70
2023/12/26 01:11:11;;;;;;;2.30;1.90;;;;;;;7.14;89.76;98806.16;217625;1254;140114;-69
2023/12/26 01:16:16;;;;;;;6.80;2.20;;;;;;;7.17;89.97;98811.11;218166;1254;139446;-69
2023/12/26 01:21:22;;;;;;;4.30;2.10;;;;;;;7.21;90.21;98818.23;218090;1254;140690;-68
2023/12/26 01:26:30;;;;;;;4.40;1.80;;;;;;;7.22;90.39;98819.63;218231;1254;141773;-69
2023/12/26 01:31:37;;;;;;;1.50;1.40;;;;;;;7.24;90.49;98811.34;219375;1253;140147;-71
2023/12/26 01:36:42;;;;;;;15.10;3.20;;;;;;;7.26;90.51;98799.84;218368;1254;139690;-71
2023/12/26 01:41:47;;;;;;;3.40;1.80;;;;;;;7.28;90.99;98791.89;217950;1257;139975;-70
2023/12/26 01:46:52;;;;;;;4.60;1.80;;;;;;;7.33;90.86;98786.55;220469;1253;141215;-73
2023/12/26 01:51:58;;;;;;;2.60;1.40;;;;;;;7.35;90.82;98782.82;220422;1254;141019;-72
2023/12/26 01:57:08;;;;;;;3.70;1.80;;;;;;;7.39;91.22;98778.86;219808;1253;140009;-71
2023/12/26 02:02:14;;;;;;;2.80;1.60;;;;;;;7.43;91.17;98761.48;217388;1257;139644;-72
2023/12/26 02:07:18;;;;;;;2.10;1.80;;;;;;;7.46;91.26;98753.43;217430;1256;140550;-71
2023/12/26 02:12:23;;;;;;;3.10;1.50;;;;;;;7.48;91.25;98754.63;217388;1253;140438;-71
2023/12/26 02:17:29;;;;;;;2.00;1.70;;;;;;;7.50;91.24;98749.15;217224;1256;139276;-69
2023/12/26 02:22:34;;;;;;;2.90;2.60;;;;;;;7.50;91.39;98756.77;217882;1256;140433;-69
2023/12/26 02:27:39;;;;;;;5.30;2.50;;;;;;;7.50;91.68;98762.95;217552;1257;139926;-68
2023/12/26 02:32:46;;;;;;;2.20;1.10;;;;;;;7.51;91.71;98756.64;218030;1256;230743;-68
2023/12/26 02:37:51;;;;;;;1.50;1.40;;;;;;;7.49;92.06;98737.30;217917;1253;139660;-68
2023/12/26 02:42:55;;;;;;;1.70;1.60;;;;;;;7.47;91.93;98722.48;218884;1253;141065;-71
2023/12/26 02:48:00;;;;;;;4.80;1.90;;;;;;;7.47;91.94;98711.61;217919;1253;139428;-69
2023/12/26 02:53:05;;;;;;;2.00;1.90;;;;;;;7.44;91.77;98700.89;217295;1257;140172;-69
2023/12/26 02:58:09;;;;;;;2.70;2.00;;;;;;;7.41;91.97;98705.41;217836;1253;139887;-70
2023/12/26 03:03:14;;;;;;;2.20;1.50;;;;;;;7.40;92.39;98705.96;218054;1253;139988;-69
2023/12/26 03:08:18;;;;;;;2.50;1.20;;;;;;;7.38;92.32;98690.29;219317;1254;140018;-71
2023/12/26 03:13:23;;;;;;;3.90;1.60;;;;;;;7.35;92.52;98681.61;217377;1254;140168;-69
2023/12/26 03:18:29;;;;;;;2.10;1.90;;;;;;;7.32;92.58;98679.08;217564;1256;139822;-71
2023/12/26 03:23:34;;;;;;;2.90;1.30;;;;;;;7.30;93.05;98668.44;219203;1253;140038;-70
2023/12/26 03:28:39;;;;;;;3.20;2.40;;;;;;;7.31;93.16;98661.62;218083;1253;139880;-70
2023/12/26 03:33:44;;;;;;;3.20;1.50;;;;;;;7.32;93.20;98650.16;217513;1256;140265;-71
2023/12/26 03:38:49;;;;;;;3.00;1.80;;;;;;;7.28;93.23;98645.23;217629;1254;140951;-71
2023/12/26 03:43:54;;;;;;;1.40;1.30;;;;;;;7.28;93.59;98640.15;217162;1253;790931;-69
2023/12/26 03:49:00;;;;;;;2.70;2.50;;;;;;;7.27;93.84;98636.00;217549;1256;140757;-69
2023/12/26 03:54:04;;;;;;;3.00;1.70;;;;;;;7.26;93.75;98623.84;220485;1253;247391;-70
2023/12/26 03:59:08;;;;;;;1.60;1.50;;;;;;;7.26;94.18;98611.36;219485;1253;140994;-70
2023/12/26 04:04:13;;;;;;;3.10;1.90;;;;;;;7.28;94.25;98603.13;220169;1253;140078;-70
2023/12/26 04:09:19;;;;;;;2.20;1.70;;;;;;;7.30;94.64;98598.83;219027;1253;139613;-69
2023/12/26 04:14:24;;;;;;;4.00;1.80;;;;;;;7.35;94.81;98590.29;219461;1253;139404;-71
2023/12/26 04:19:30;;;;;;;3.40;2.30;;;;;;;7.36;94.72;98582.98;217942;1254;140217;-69
2023/12/26 04:24:35;;;;;;;1.30;1.30;;;;;;;7.38;95.10;98575.88;218069;1256;140350;-72
2023/12/26 04:29:39;;;;;;;4.10;2.70;;;;;;;7.39;95.37;98569.63;217709;1254;139412;-70
2023/12/26 04:34:43;;;;;;;3.40;3.00;;;;;;;7.38;95.48;98566.75;217416;1254;140319;-70
2023/12/26 04:39:48;;;;;;;3.20;2.90;;;;;;;7.41;95.82;98562.80;218025;1254;139751;-71
2023/12/26 04:44:52;;;;;;;4.40;2.80;;;;;;;7.42;95.74;98551.65;217727;1253;139486;-70
2023/12/26 04:49:59;;;;;;;4.10;3.00;;;;;;;7.41;95.91;98543.26;217251;1254;139596;-71
2023/12/26 04:55:06;;;;;;;3.70;3.40;;;;;;;7.39;96.23;98531.56;217720;1256;140215;-69
2023/12/26 05:00:11;;;;;;;3.70;2.30;;;;;;;7.39;96.49;98529.98;217480;1254;139616;-69
2023/12/26 05:05:16;;;;;;;2.80;2.50;;;;;;;7.43;96.55;98527.15;218675;1254;140469;-72
2023/12/26 05:10:21;;;;;;;3.20;2.50;;;;;;;7.45;96.87;98514.20;218051;1256;139828;-73
2023/12/26 05:15:26;;;;;;;4.20;2.30;;;;;;;7.47;97.07;98505.80;217668;1254;139680;-72
2023/12/26 05:20:32;;;;;;;6.20;3.30;;;;;;;7.47;96.97;98495.35;218847;1254;141009;-70
2023/12/26 05:25:37;;;;;;;3.30;2.30;;;;;;;7.51;97.16;98484.90;218579;1254;140004;-72
2023/12/26 05:30:42;;;;;;;3.10;1.70;;;;;;;7.52;97.15;98472.55;220407;1253;139988;-69
2023/12/26 05:35:47;;;;;;;2.50;2.30;;;;;;;7.54;97.35;98463.36;218329;1256;140805;-70
2023/12/26 05:40:52;;;;;;;1.90;1.80;;;;;;;7.56;97.59;98458.47;220529;1253;141033;-70
2023/12/26 05:45:56;;;;;;;3.00;2.00;;;;;;;7.59;97.67;98454.42;220585;1253;140431;-70
2023/12/26 05:51:01;;;;;;;1.30;1.20;;;;;;;7.64;97.91;98452.35;220491;1254;140997;-70
2023/12/26 05:56:06;;;;;;;1.00;1.00;;;;;;;7.68;98.06;98442.04;218921;1253;139936;-68
2023/12/26 06:01:11;;;;;;;1.10;1.10;;;;;;;7.74;98.36;98434.11;218339;1254;140432;-71
2023/12/26 06:06:17;;;;;;;2.80;2.60;;;;;;;7.77;98.54;98420.94;218476;1254;140275;-70
2023/12/26 06:11:21;;;;;;;1.30;1.30;;;;;;;7.82;98.57;98414.95;217678;1254;140098;-68
2023/12/26 06:16:26;;;;;;;1.30;1.20;;;;;;;7.85;98.71;98412.53;217119;1256;139572;-69
2023/12/26 06:21:31;;;;;;;1.20;1.20;;;;;;;7.87;99.01;98410.02;217507;1254;140350;-69
2023/12/26 06:26:36;;;;;;;1.10;1.10;;;;;;;7.88;99.13;98403.02;217529;1253;141538;-66
2023/12/26 06:31:44;;;;;;;1.30;1.20;;;;;;;7.90;99.28;98398.90;218934;1254;141159;-72
2023/12/26 06:36:48;;;;;;;2.20;0.80;;;;;;;7.93;99.55;98399.21;217596;1258;140113;-70
2023/12/26 06:41:52;;;;;;;0.70;0.70;;;;;;;7.94;99.92;98405.00;218913;1254;139778;-69
2023/12/26 06:46:57;;;;;;;0.90;0.80;;;;;;;7.97;99.91;98395.17;218110;1254;140662;-69
2023/12/26 06:52:03;;;;;;;1.40;1.30;;;;;;;7.99;100.00;98397.02;218069;1257;139560;-69
2023/12/26 06:57:15;;;;;;;2.80;1.30;;;;;;;8.02;100.00;98397.80;218517;1254;139603;-70
2023/12/26 07:02:22;;;;;;;1.80;1.40;;;;;;;8.05;100.00;98396.65;218433;1254;140105;-68
2023/12/26 07:07:26;;;;;;;1.10;1.10;;;;;;;8.08;100.00;98403.54;217448;1258;141168;-68
2023/12/26 07:12:31;;;;;;;1.40;1.20;;;;;;;8.11;100.00;98397.04;218700;1254;141121;-67
2023/12/26 07:17:37;;;;;;;2.30;1.90;;;;;;;8.15;100.00;98410.23;218229;1257;139913;-67
2023/12/26 07:22:42;;;;;;;1.00;0.80;;;;;;;8.17;100.00;98401.66;217719;1259;139982;-68
2023/12/26 07:27:46;;;;;;;1.90;1.80;;;;;;;8.20;100.00;98408.33;217763;1254;140160;-68
2023/12/26 07:32:51;;;;;;;2.10;1.20;;;;;;;8.23;100.00;98417.51;220304;1254;140085;-69
2023/12/26 07:37:56;;;;;;;1.30;1.20;;;;;;;8.26;100.00;98412.41;220615;1256;140271;-70
2023/12/26 07:43:01;;;;;;;1.30;1.20;;;;;;;8.32;100.00;98419.23;218036;1254;139656;-69
2023/12/26 07:48:07;;;;;;;1.00;1.00;;;;;;;8.37;100.00;98415.77;218978;1254;139650;-71
2023/12/26 07:53:12;;;;;;;3.40;3.00;;;;;;;8.41;100.00;98423.41;219502;1254;140295;-68
2023/12/26 07:58:16;;;;;;;3.20;3.00;;;;;;;8.46;100.00;98428.98;218731;1253;140176;-68
2023/12/26 08:03:20;;;;;;;1.30;1.10;;;;;;;8.50;100.00;98427.32;217649;1254;139856;-69
2023/12/26 08:08:26;;;;;;;1.00;0.90;;;;;;;8.55;100.00;98424.86;217555;1254;139666;-70
2023/12/26 08:13:32;;;;;;;0.60;0.60;;;;;;;8.58;100.00;98435.71;217385;1256;139793;-71
2023/12/26 08:18:37;;;;;;;0.50;0.50;;;;;;;8.62;100.00;98436.86;217408;1256;140826;-72
2023/12/26 08:23:42;;;;;;;0.70;0.70;;;;;;;8.67;100.00;98441.26;218399;1253;140771;-74
2023/12/26 08:28:47;;;;;;;1.20;0.60;;;;;;;8.68;100.00;98444.66;218885;1256;139875;-71
2023/12/26 08:33:53;;;;;;;3.20;3.10;;;;;;;8.72;100.00;98442.79;217478;1254;140678;-69
2023/12/26 08:38:59;;;;;;;2.30;2.10;;;;;;;8.74;100.00;98460.18;217926;1256;140713;-70
2023/12/26 08:44:04;;;;;;;1.10;1.10;;;;;;;8.75;100.00;98460.88;217600;1253;141064;-71
2023/12/26 08:49:09;;;;;;;1.40;1.20;;;;;;;8.78;100.00;98472.06;217531;1254;143468;-69
2023/12/26 08:54:14;;;;;;;1.00;1.00;;;;;;;8.79;100.00;98488.49;218611;1254;140836;-69
2023/12/26 08:59:20;;;;;;;2.50;2.40;;;;;;;8.81;100.00;98484.36;218279;1254;235053;-70
2023/12/26 09:04:26;;;;;;;2.50;1.30;;;;;;;8.81;100.00;98491.75;218531;1253;140752;-67
2023/12/26 09:09:31;;;;;;;0.90;0.90;;;;;;;8.82;100.00;98501.08;218368;1253;139856;-69
2023/12/26 09:14:38;;;;;;;1.80;1.00;;;;;;;8.87;100.00;98504.27;219221;1256;140244;-69
2023/12/26 09:19:44;;;;;;;1.40;1.30;;;;;;;8.92;100.00;98511.38;218116;1256;139823;-69
2023/12/26 09:24:48;;;;;;;2.50;0.90;;;;;;;8.92;100.00;98526.91;218893;1253;141958;-71
2023/12/26 09:29:52;;;;;;;2.20;1.10;;;;;;;8.95;100.00;98525.13;220500;1254;141796;-70
2023/12/26 09:34:58;;;;;;;1.50;1.20;;;;;;;9.02;100.00;98531.95;220147;1254;140471;-70
2023/12/26 09:40:14;;;;;;;0.70;0.70;;;;;;;9.08;100.00;98531.52;217797;1256;141753;-69
2023/12/26 09:45:25;;;;;;;1.30;1.00;;;;;;;9.13;100.00;98530.66;219976;1254;141088;-69
2023/12/26 09:50:34;;;;;;;1.40;1.30;;;;;;;9.15;100.00;98537.48;217578;1254;140180;-69
2023/12/26 09:55:43;;;;;;;2.10;1.10;;;;;;;9.16;99.98;98559.70;219957;1254;140639;-72
2023/12/26 10:00:50;;;;;;;3.40;1.20;;;;;;;9.14;99.78;98577.51;217835;1253;139471;-71
2023/12/26 10:06:00;;;;;;;1.00;0.70;;;;;;;9.10;99.86;98584.76;217453;1253;140247;-71
2023/12/26 10:11:13;;;;;;;0.70;0.60;;;;;;;9.02;99.63;98581.81;218144;1254;139752;-70
2023/12/26 10:16:23;;;;;;;0.60;0.60;;;;;;;8.93;99.85;98588.52;218883;1254;140276;-74
2023/12/26 10:21:29;;;;;;;0.60;0.60;;;;;;;8.87;99.69;98591.13;219081;1254;140072;-70
2023/12/26 10:26:35;;;;;;;0.60;0.60;;;;;;;8.84;99.46;98595.74;218631;1254;140107;-71
2023/12/26 10:31:44;;;;;;;0.50;0.50;;;;;;;8.82;99.73;98600.14;217593;1254;223976;-72
2023/12/26 10:36:52;;;;;;;3.30;0.70;;;;;;;8.86;99.84;98598.03;218429;1256;141137;-68
2023/12/26 10:41:58;;;;;;;1.10;1.10;;;;;;;8.86;99.52;98606.33;217821;1254;139593;-67
2023/12/26 10:47:05;;;;;;;1.40;0.90;;;;;;;8.86;99.15;98607.54;217908;1256;140016;-69
2023/12/26 10:52:13;;;;;;;;;;;;;;;8.82;99.49;98607.57;218270;1253;139638;-68
2023/12/26 10:57:20;;;;;;;1.00;0.90;;;;;;;8.82;99.59;98619.52;218336;1257;127206;-70
2023/12/26 13:52:39;;;;;;;2.50;1.20;;;;;;;8.72;91.88;98825.33;218485;1257;138926;-75
2023/12/26 13:57:45;;;;;;;1.20;1.10;;;;;;;8.72;91.53;98826.34;217761;1259;139299;-74
2023/12/26 14:03:28;;;;;;;34.40;15.20;;;;;;;8.69;91.21;98842.02;217835;1260;139118;-73
2023/12/26 14:08:35;;;;;;;9.00;7.10;;;;;;;8.63;91.11;98847.88;218490;1257;139523;-74
2023/12/26 15:00:40;;;;;;;2.70;1.70;;;;;;;7.88;89.61;98920.69;217697;1260;235361;-73
2023/12/26 15:05:45;;;;;;;2.80;2.10;;;;;;;7.88;89.57;98928.70;217373;1260;139396;-71
2023/12/26 15:10:52;;;;;;;1.70;1.50;;;;;;;7.88;89.61;98935.70;217674;1257;141242;-74
2023/12/26 15:15:56;;;;;;;1.30;1.20;;;;;;;7.85;89.25;98938.55;218245;1258;138618;-76
2023/12/26 15:21:01;;;;;;;6.90;3.10;;;;;;;7.80;89.11;98940.90;217619;1258;138912;-77
2023/12/26 15:26:13;;;;;;;4.10;2.40;;;;;;;7.75;88.80;98946.26;217617;1260;138973;-74
2023/12/26 15:31:19;;;;;;;3.60;1.80;;;;;;;7.68;88.55;98954.23;218363;1260;140411;-73
2023/12/26 15:36:25;;;;;;;3.60;1.30;;;;;;;7.64;88.40;98965.14;217932;1257;139866;-71
2023/12/26 15:41:30;;;;;;;4.90;1.40;;;;;;;7.59;88.11;98968.71;218491;1257;209268;-73
2023/12/26 15:46:34;;;;;;;2.90;1.70;;;;;;;7.56;87.64;98978.47;217720;1258;139413;-70
2023/12/26 15:51:41;;;;;;;1.50;1.20;;;;;;;7.55;87.55;98983.73;218476;1257;139314;-72
2023/12/26 15:56:45;;;;;;;3.20;1.30;;;;;;;7.55;87.48;98983.11;217693;1260;138779;-71
2023/12/26 16:01:49;;;;;;;5.80;1.30;;;;;;;7.57;87.32;98993.97;218770;1257;139648;-74
2023/12/26 16:06:54;;;;;;;3.00;1.30;;;;;;;7.59;87.42;99003.84;217330;1260;138940;-73
2023/12/26 16:11:58;;;;;;;7.60;1.50;;;;;;;7.62;87.34;99010.96;217613;1256;138990;-73
2023/12/26 16:17:02;;;;;;;3.50;2.00;;;;;;;7.63;87.17;99016.97;217585;1260;138692;-76
2023/12/26 16:22:07;;;;;;;2.70;1.70;;;;;;;7.60;86.83;99022.91;217852;1257;140614;-75
2023/12/26 16:27:11;;;;;;;6.40;3.10;;;;;;;7.59;86.57;99030.41;217217;1258;139869;-74
2023/12/26 16:32:18;;;;;;;3.30;1.60;;;;;;;7.57;86.46;99036.61;219009;1257;138831;-74
2023/12/26 16:37:22;;;;;;;5.40;2.60;;;;;;;7.50;85.72;99040.23;217811;1256;139233;-73
2023/12/26 16:42:26;;;;;;;3.30;1.40;;;;;;;7.41;85.38;99038.38;217064;1257;140033;-72
2023/12/26 16:47:30;;;;;;;2.90;1.50;;;;;;;7.30;85.05;99043.44;217361;1256;139152;-73
2023/12/26 16:52:34;;;;;;;4.40;2.30;;;;;;;7.23;84.67;99052.70;217445;1260;140446;-76
2023/12/26 16:57:38;;;;;;;2.40;1.80;;;;;;;7.13;84.39;99067.58;217234;1257;139625;-72
2023/12/26 17:02:43;;;;;;;3.20;1.10;;;;;;;7.07;84.45;99070.17;217327;1257;138715;-70
2023/12/26 17:07:48;;;;;;;5.20;1.60;;;;;;;7.06;84.76;99061.40;217615;1256;139328;-71
2023/12/26 17:12:52;;;;;;;2.40;1.40;;;;;;;7.06;84.42;99060.66;217193;1259;150389;-72
2023/12/26 17:17:56;;;;;;;3.10;2.20;;;;;;;7.03;84.19;99066.38;218576;1256;139295;-69
2023/12/26 17:23:02;;;;;;;3.60;1.60;;;;;;;7.01;83.83;99073.08;217953;1256;139212;-70
2023/12/26 17:28:09;;;;;;;4.00;2.20;;;;;;;6.98;83.53;99072.35;217889;1260;139526;-72
2023/12/26 17:33:14;;;;;;;3.90;1.90;;;;;;;6.92;83.34;99064.20;218330;1257;139204;-72
2023/12/26 17:38:18;;;;;;;4.70;1.60;;;;;;;6.84;83.16;99064.52;217154;1257;139551;-72
2023/12/26 17:43:23;;;;;;;2.60;1.40;;;;;;;6.72;82.75;99073.61;218537;1257;139054;-69
2023/12/26 17:48:27;;;;;;;3.70;1.30;;;;;;;6.64;82.62;99073.34;217315;1257;140054;-70
2023/12/26 17:53:32;;;;;;;4.70;2.10;;;;;;;6.59;82.73;99077.92;218510;1257;140149;-73
2023/12/26 17:58:37;;;;;;;4.00;1.60;;;;;;;6.54;82.89;99074.35;219243;1256;139579;-71
2023/12/26 18:03:41;;;;;;;4.20;2.00;;;;;;;6.51;82.94;99074.20;217480;1257;139012;-70
2023/12/26 18:08:48;;;;;;;5.30;2.20;;;;;;;6.51;82.90;99080.02;218317;1256;141101;-72
2023/12/26 18:13:52;;;;;;;4.60;2.00;;;;;;;6.48;82.99;99073.50;219301;1257;140436;-70
2023/12/26 18:18:55;;;;;;;2.90;1.20;;;;;;;6.45;82.74;99093.00;217512;1256;138831;-69
2023/12/26 18:24:00;;;;;;;3.20;2.00;;;;;;;6.42;82.66;99105.55;217846;1257;139352;-70
2023/12/26 18:29:04;;;;;;;3.50;1.30;;;;;;;6.40;82.38;99111.53;217693;1257;138894;-69
2023/12/26 18:34:10;;;;;;;3.70;1.00;;;;;;;6.39;82.28;99114.93;219643;1257;139273;-70
2023/12/26 18:39:14;;;;;;;1.60;1.10;;;;;;;6.38;82.01;99107.48;219573;1257;140114;-70
2023/12/26 18:44:18;;;;;;;3.60;1.30;;;;;;;6.37;81.81;99107.95;217880;1255;138829;-68
2023/12/26 18:49:22;;;;;;;1.10;0.80;;;;;;;6.35;81.69;99109.08;218026;1256;138920;-68
2023/12/26 18:54:27;;;;;;;4.50;1.70;;;;;;;6.31;81.38;99117.35;218772;1257;139078;-69
2023/12/26 18:59:33;;;;;;;7.80;2.20;;;;;;;6.27;81.69;99121.99;218701;1256;139715;-74
2023/12/26 19:04:39;;;;;;;7.10;1.60;;;;;;;6.21;81.30;99128.08;219362;1257;138985;-71
2023/12/26 19:09:44;;;;;;;4.10;1.90;;;;;;;6.17;81.22;99128.16;218047;1259;139282;-72
2023/12/26 19:14:48;;;;;;;6.10;2.90;;;;;;;6.16;81.45;99128.59;217715;1259;138869;-71
2023/12/26 19:19:53;;;;;;;5.80;2.30;;;;;;;6.13;81.57;99122.64;218296;1256;140651;-74
2023/12/26 19:25:01;;;;;;;2.40;2.00;;;;;;;6.07;81.49;99126.59;218992;1256;138979;-72
2023/12/26 19:30:15;;;;;;;5.40;2.60;;;;;;;6.05;81.30;99127.42;218235;1257;140144;-71
2023/12/26 19:35:19;;;;;;;4.40;3.00;;;;;;;6.04;81.35;99132.40;218468;1256;139494;-69
2023/12/26 19:40:24;;;;;;;4.80;2.60;;;;;;;6.03;81.26;99143.77;217991;1255;139183;-73
2023/12/26 19:45:28;;;;;;;4.80;1.60;;;;;;;6.00;81.07;99150.27;217796;1257;140551;-70
2023/12/26 19:50:33;;;;;;;8.20;2.90;;;;;;;5.98;81.37;99152.39;219143;1256;139194;-70
2023/12/26 19:55:38;;;;;;;4.10;2.60;;;;;;;5.96;81.23;99159.54;218309;1253;139102;-72
2023/12/26 20:00:42;;;;;;;2.20;2.00;;;;;;;5.93;81.39;99164.56;217828;1254;139866;-70
2023/12/26 20:05:48;;;;;;;6.10;2.10;;;;;;;5.92;81.24;99171.77;218432;1257;140336;-71
2023/12/26 20:10:53;;;;;;;10.70;2.70;;;;;;;5.91;81.51;99170.36;219141;1255;140346;-69
2023/12/26 20:15:57;;;;;;;4.60;2.20;;;;;;;5.91;81.14;99170.09;219415;1254;139442;-71
2023/12/26 20:21:03;;;;;;;3.80;1.70;;;;;;;5.89;81.43;99172.49;219150;1253;139413;-70
2023/12/26 20:26:08;;;;;;;2.10;1.70;;;;;;;5.87;80.78;99187.34;219904;1255;139539;-66
2023/12/26 20:31:11;;;;;;;6.20;2.20;;;;;;;5.86;80.85;99188.89;218700;1255;139301;-69
2023/12/26 20:36:15;;;;;;;4.80;1.70;;;;;;;5.86;80.82;99202.53;218685;1258;139606;-68
2023/12/26 20:41:20;;;;;;;5.60;1.70;;;;;;;5.88;80.78;99206.55;218098;1256;149706;-69
2023/12/26 20:46:24;;;;;;;4.90;2.00;;;;;;;5.92;81.27;99209.02;219056;1255;138687;-68
2023/12/26 20:51:29;;;;;;;2.40;1.60;;;;;;;5.96;81.14;99211.99;218953;1253;142334;-68
2023/12/26 21:02:16;;;;;;;2.80;2.20;;;;;;;6.00;81.02;99228.58;214887;1269;977368;-67
2023/12/26 21:07:21;;;;;;;3.20;1.30;;;;;;;6.04;80.91;99225.65;215679;1267;139730;-67
2023/12/26 21:12:26;;;;;;;7.70;2.60;;;;;;;6.09;81.55;99246.13;216606;1266;140225;-68
2023/12/26 21:17:30;;;;;;;3.30;2.50;;;;;;;6.12;81.40;99252.64;216844;1265;141272;-68
2023/12/26 21:22:35;;;;;;;4.60;2.00;;;;;;;6.12;81.10;99249.79;215841;1270;139787;-68
2023/12/26 21:27:40;;;;;;;3.40;2.00;;;;;;;6.14;80.77;99259.58;216170;1267;140407;-68
2023/12/26 21:33:01;;;;;;;4.00;1.90;;;;;;;6.13;80.71;99265.13;215975;1270;140866;-69
2023/12/26 21:38:06;;;;;;;7.40;3.00;;;;;;;6.13;80.82;99277.25;217485;1267;139331;-70
2023/12/26 21:43:10;;;;;;;2.10;1.50;;;;;;;6.17;81.19;99286.83;217267;1267;139440;-69
2023/12/26 21:48:14;;;;;;;6.10;1.80;;;;;;;6.21;80.86;99290.34;218055;1267;139485;-69
2023/12/26 21:53:19;;;;;;;1.90;1.20;;;;;;;6.24;80.94;99294.06;216014;1268;139563;-69
2023/12/26 21:58:23;;;;;;;2.00;1.60;;;;;;;6.29;81.08;99301.89;218823;1267;139579;-69
2023/12/26 22:03:28;;;;;;;7.30;2.60;;;;;;;6.32;80.60;99313.91;217976;1267;139903;-70
2023/12/26 22:08:32;;;;;;;7.40;1.60;;;;;;;6.35;80.76;99315.59;216405;1267;142211;-69
2023/12/26 22:13:36;;;;;;;8.30;2.40;;;;;;;6.37;81.10;99321.73;216353;1267;139873;-70
2023/12/26 22:18:40;;;;;;;3.50;2.30;;;;;;;6.38;80.57;99328.77;216207;1267;140640;-70
2023/12/26 22:23:45;;;;;;;4.40;2.20;;;;;;;6.38;80.67;99320.77;216330;1267;140478;-71
2023/12/26 22:28:49;;;;;;;2.80;2.10;;;;;;;6.39;80.88;99328.48;215897;1267;231659;-69
2023/12/26 22:33:54;;;;;;;9.20;2.10;;;;;;;6.40;81.19;99335.59;216881;1268;139155;-69
2023/12/26 22:38:58;;;;;;;2.50;1.60;;;;;;;6.37;81.03;99350.45;217172;1266;139936;-71
2023/12/26 22:44:03;;;;;;;1.80;1.60;;;;;;;6.24;81.51;99368.37;216157;1268;139176;-70
2023/12/26 22:49:07;;;;;;;6.30;1.50;;;;;;;6.08;82.01;99395.16;216440;1267;139033;-69
2023/12/26 22:54:12;;;;;;;3.40;2.00;;;;;;;5.95;82.33;99408.42;215976;1268;140191;-68
2023/12/26 22:59:17;;;;;;;3.10;1.30;;;;;;;5.75;82.43;99417.30;215767;1268;141297;-67
2023/12/26 23:04:22;;;;;;;5.50;1.60;;;;;;;5.57;83.00;99405.86;216187;1267;141397;-68
2023/12/26 23:09:28;;;;;;;2.10;1.50;;;;;;;5.44;83.18;99414.10;215812;1267;139144;-68
2023/12/26 23:14:32;;;;;;;5.40;1.10;;;;;;;5.33;83.92;99419.79;217470;1267;139550;-69
2023/12/26 23:19:36;;;;;;;0.90;0.90;;;;;;;5.24;83.61;99425.21;216214;1268;139616;-68
2023/12/26 23:24:41;;;;;;;0.60;0.60;;;;;;;5.15;84.13;99437.81;215964;1271;139397;-67
2023/12/26 23:29:45;;;;;;;2.00;0.80;;;;;;;5.07;84.42;99441.73;215704;1268;139307;-68
2023/12/26 23:34:49;;;;;;;0.50;0.50;;;;;;;5.03;84.54;99441.04;216452;1267;139868;-67
2023/12/26 23:39:53;;;;;;;0.60;0.60;;;;;;;4.98;84.82;99450.79;216824;1269;141546;-69
2023/12/26 23:44:58;;;;;;;1.60;1.00;;;;;;;4.97;84.86;99447.55;216866;1265;139312;-69
2023/12/26 23:50:02;;;;;;;1.30;0.90;;;;;;;4.92;85.32;99460.55;218013;1267;139521;-69
2023/12/26 23:55:12;;;;;;;1.00;0.70;;;;;;;4.88;85.27;99457.77;217203;1266;140088;-68
